Terminal Aerodrome Forecast
Issued by NWS

Home | Current Version | Previous Version | Text Only | Print | Product List | Glossary On
Versions: 1 2 3 4 5 6 7 8 9 10 11 12 13 14 15 16 17 18
480
FTAK31 PAJN 231613 AAB
TAFAGY
TAF AMD
PAGY 231613Z 2316/2412 00000KT 3SM -RA BR VCSH OVC007
     FM231800 21009KT P6SM VCSH SCT007 BKN015 OVC025
     FM232100 21010KT P6SM SCT025 OVC040
     FM240900 21006KT P6SM -RA BKN015 OVC030
      AMD LTD TO CLD VIS AND WIND=

USA.gov is the U.S. government's official web portal to all federal, state and local government web resources and services.